sensor_id;sensor_type;location;lat;lon;timestamp;P1;durP1;ratioP1;P2;durP2;ratioP2
34767;SDS011;21755;43.608;1.236;2023-06-26T00:01:27;25.60;;;9.48;;
34767;SDS011;21755;43.608;1.236;2023-06-26T00:03:59;21.98;;;10.45;;
34767;SDS011;21755;43.608;1.236;2023-06-26T00:06:26;16.08;;;8.80;;
34767;SDS011;21755;43.608;1.236;2023-06-26T00:08:53;15.55;;;8.25;;
34767;SDS011;21755;43.608;1.236;2023-06-26T00:11:20;19.15;;;9.77;;
34767;SDS011;21755;43.608;1.236;2023-06-26T00:13:46;15.35;;;8.85;;
34767;SDS011;21755;43.608;1.236;2023-06-26T00:16:13;20.08;;;9.30;;
34767;SDS011;21755;43.608;1.236;2023-06-26T00:18:39;20.58;;;8.82;;
34767;SDS011;21755;43.608;1.236;2023-06-26T00:21:05;13.82;;;8.30;;
34767;SDS011;21755;43.608;1.236;2023-06-26T00:23:31;15.60;;;8.93;;
34767;SDS011;21755;43.608;1.236;2023-06-26T00:25:58;18.17;;;8.98;;
34767;SDS011;21755;43.608;1.236;2023-06-26T00:28:24;17.55;;;8.50;;
34767;SDS011;21755;43.608;1.236;2023-06-26T00:30:50;12.10;;;8.68;;
34767;SDS011;21755;43.608;1.236;2023-06-26T00:33:15;17.15;;;8.68;;
34767;SDS011;21755;43.608;1.236;2023-06-26T00:35:41;14.23;;;8.63;;
34767;SDS011;21755;43.608;1.236;2023-06-26T00:38:07;15.95;;;8.65;;
34767;SDS011;21755;43.608;1.236;2023-06-26T00:40:33;17.95;;;8.80;;
34767;SDS011;21755;43.608;1.236;2023-06-26T00:42:59;14.43;;;8.82;;
34767;SDS011;21755;43.608;1.236;2023-06-26T00:45:25;16.52;;;9.00;;
34767;SDS011;21755;43.608;1.236;2023-06-26T00:47:51;17.80;;;9.32;;
34767;SDS011;21755;43.608;1.236;2023-06-26T00:50:17;17.60;;;8.77;;
34767;SDS011;21755;43.608;1.236;2023-06-26T00:52:43;15.90;;;8.63;;
34767;SDS011;21755;43.608;1.236;2023-06-26T00:55:09;24.30;;;9.18;;
34767;SDS011;21755;43.608;1.236;2023-06-26T00:57:35;17.15;;;9.48;;
34767;SDS011;21755;43.608;1.236;2023-06-26T01:00:01;24.15;;;8.45;;
34767;SDS011;21755;43.608;1.236;2023-06-26T01:02:29;17.80;;;9.38;;
34767;SDS011;21755;43.608;1.236;2023-06-26T01:04:59;16.95;;;8.48;;
34767;SDS011;21755;43.608;1.236;2023-06-26T01:07:28;19.20;;;9.68;;
34767;SDS011;21755;43.608;1.236;2023-06-26T01:09:57;21.05;;;9.40;;
34767;SDS011;21755;43.608;1.236;2023-06-26T01:12:24;17.90;;;8.40;;
34767;SDS011;21755;43.608;1.236;2023-06-26T01:14:50;17.92;;;9.43;;
34767;SDS011;21755;43.608;1.236;2023-06-26T01:17:16;17.85;;;8.73;;
34767;SDS011;21755;43.608;1.236;2023-06-26T01:19:42;18.30;;;8.73;;
34767;SDS011;21755;43.608;1.236;2023-06-26T01:27:46;22.63;;;9.50;;
34767;SDS011;21755;43.608;1.236;2023-06-26T01:30:14;14.82;;;9.30;;
34767;SDS011;21755;43.608;1.236;2023-06-26T01:32:42;16.42;;;9.25;;
34767;SDS011;21755;43.608;1.236;2023-06-26T01:35:09;16.70;;;9.02;;
34767;SDS011;21755;43.608;1.236;2023-06-26T01:37:36;17.42;;;8.95;;
34767;SDS011;21755;43.608;1.236;2023-06-26T01:40:02;14.63;;;9.45;;
34767;SDS011;21755;43.608;1.236;2023-06-26T01:42:34;15.75;;;9.52;;
34767;SDS011;21755;43.608;1.236;2023-06-26T01:45:11;18.42;;;9.68;;
34767;SDS011;21755;43.608;1.236;2023-06-26T01:47:43;22.10;;;9.73;;
34767;SDS011;21755;43.608;1.236;2023-06-26T01:50:22;17.27;;;10.00;;
34767;SDS011;21755;43.608;1.236;2023-06-26T01:55:47;18.55;;;9.40;;
34767;SDS011;21755;43.608;1.236;2023-06-26T01:58:37;21.45;;;9.52;;
34767;SDS011;21755;43.608;1.236;2023-06-26T02:01:09;21.27;;;11.25;;
34767;SDS011;21755;43.608;1.236;2023-06-26T02:03:35;18.48;;;9.25;;
34767;SDS011;21755;43.608;1.236;2023-06-26T02:06:01;22.33;;;10.80;;
34767;SDS011;21755;43.608;1.236;2023-06-26T02:08:26;25.30;;;10.30;;
34767;SDS011;21755;43.608;1.236;2023-06-26T02:10:52;19.85;;;10.07;;
34767;SDS011;21755;43.608;1.236;2023-06-26T02:13:18;23.20;;;10.15;;
34767;SDS011;21755;43.608;1.236;2023-06-26T02:15:44;20.98;;;10.73;;
34767;SDS011;21755;43.608;1.236;2023-06-26T02:18:10;24.02;;;11.00;;
34767;SDS011;21755;43.608;1.236;2023-06-26T02:20:36;20.02;;;10.52;;
34767;SDS011;21755;43.608;1.236;2023-06-26T02:23:02;18.58;;;9.68;;
34767;SDS011;21755;43.608;1.236;2023-06-26T02:25:28;21.35;;;9.73;;
34767;SDS011;21755;43.608;1.236;2023-06-26T02:27:54;23.83;;;10.30;;
34767;SDS011;21755;43.608;1.236;2023-06-26T02:30:20;21.20;;;10.40;;
34767;SDS011;21755;43.608;1.236;2023-06-26T02:32:46;20.20;;;10.38;;
34767;SDS011;21755;43.608;1.236;2023-06-26T02:35:12;20.30;;;9.68;;
34767;SDS011;21755;43.608;1.236;2023-06-26T02:37:37;17.23;;;9.55;;
34767;SDS011;21755;43.608;1.236;2023-06-26T02:40:03;19.80;;;9.98;;
34767;SDS011;21755;43.608;1.236;2023-06-26T02:42:31;22.63;;;10.63;;
34767;SDS011;21755;43.608;1.236;2023-06-26T02:44:57;14.88;;;9.25;;
34767;SDS011;21755;43.608;1.236;2023-06-26T02:47:23;18.20;;;10.13;;
34767;SDS011;21755;43.608;1.236;2023-06-26T02:49:49;20.92;;;10.00;;
34767;SDS011;21755;43.608;1.236;2023-06-26T02:52:15;19.00;;;10.75;;
34767;SDS011;21755;43.608;1.236;2023-06-26T02:54:41;23.63;;;10.25;;
34767;SDS011;21755;43.608;1.236;2023-06-26T02:57:07;24.52;;;11.05;;
34767;SDS011;21755;43.608;1.236;2023-06-26T02:59:32;16.67;;;10.07;;
34767;SDS011;21755;43.608;1.236;2023-06-26T03:01:59;18.50;;;9.13;;
34767;SDS011;21755;43.608;1.236;2023-06-26T03:04:25;18.83;;;10.20;;
34767;SDS011;21755;43.608;1.236;2023-06-26T03:06:51;24.40;;;9.73;;
34767;SDS011;21755;43.608;1.236;2023-06-26T03:09:16;24.08;;;10.60;;
34767;SDS011;21755;43.608;1.236;2023-06-26T03:11:43;21.88;;;10.48;;
34767;SDS011;21755;43.608;1.236;2023-06-26T03:14:09;16.88;;;9.65;;
34767;SDS011;21755;43.608;1.236;2023-06-26T03:16:34;17.48;;;9.40;;
34767;SDS011;21755;43.608;1.236;2023-06-26T03:19:00;17.50;;;9.63;;
34767;SDS011;21755;43.608;1.236;2023-06-26T03:21:26;15.35;;;9.27;;
34767;SDS011;21755;43.608;1.236;2023-06-26T03:23:52;19.20;;;9.55;;
34767;SDS011;21755;43.608;1.236;2023-06-26T03:26:18;18.45;;;9.25;;
34767;SDS011;21755;43.608;1.236;2023-06-26T03:28:44;17.52;;;9.60;;
34767;SDS011;21755;43.608;1.236;2023-06-26T03:31:10;21.77;;;9.20;;
34767;SDS011;21755;43.608;1.236;2023-06-26T03:33:37;18.52;;;8.95;;
34767;SDS011;21755;43.608;1.236;2023-06-26T03:36:03;22.23;;;9.90;;
34767;SDS011;21755;43.608;1.236;2023-06-26T03:38:29;19.17;;;9.05;;
34767;SDS011;21755;43.608;1.236;2023-06-26T03:40:55;18.65;;;9.65;;
34767;SDS011;21755;43.608;1.236;2023-06-26T03:43:21;19.85;;;9.73;;
34767;SDS011;21755;43.608;1.236;2023-06-26T03:45:47;20.15;;;9.43;;
34767;SDS011;21755;43.608;1.236;2023-06-26T03:48:13;19.00;;;10.18;;
34767;SDS011;21755;43.608;1.236;2023-06-26T03:50:39;17.40;;;9.13;;
34767;SDS011;21755;43.608;1.236;2023-06-26T03:53:05;13.23;;;8.63;;
34767;SDS011;21755;43.608;1.236;2023-06-26T03:55:31;20.27;;;8.65;;
34767;SDS011;21755;43.608;1.236;2023-06-26T03:57:57;17.70;;;9.88;;
34767;SDS011;21755;43.608;1.236;2023-06-26T04:00:22;23.92;;;9.73;;
34767;SDS011;21755;43.608;1.236;2023-06-26T04:02:48;18.90;;;10.10;;
34767;SDS011;21755;43.608;1.236;2023-06-26T04:05:16;20.20;;;9.57;;
34767;SDS011;21755;43.608;1.236;2023-06-26T04:07:42;21.85;;;9.43;;
34767;SDS011;21755;43.608;1.236;2023-06-26T04:10:08;30.95;;;10.50;;
34767;SDS011;21755;43.608;1.236;2023-06-26T04:12:34;22.25;;;9.45;;
34767;SDS011;21755;43.608;1.236;2023-06-26T04:15:00;22.05;;;9.45;;
34767;SDS011;21755;43.608;1.236;2023-06-26T04:17:26;18.02;;;10.00;;
34767;SDS011;21755;43.608;1.236;2023-06-26T04:19:52;18.73;;;9.80;;
34767;SDS011;21755;43.608;1.236;2023-06-26T04:22:18;17.00;;;9.05;;
34767;SDS011;21755;43.608;1.236;2023-06-26T04:24:44;24.42;;;10.27;;
34767;SDS011;21755;43.608;1.236;2023-06-26T04:27:11;16.50;;;7.35;;
34767;SDS011;21755;43.608;1.236;2023-06-26T04:29:38;14.32;;;7.55;;
34767;SDS011;21755;43.608;1.236;2023-06-26T04:32:04;15.90;;;6.47;;
34767;SDS011;21755;43.608;1.236;2023-06-26T04:34:32;14.00;;;6.93;;
34767;SDS011;21755;43.608;1.236;2023-06-26T04:36:59;11.38;;;6.38;;
34767;SDS011;21755;43.608;1.236;2023-06-26T04:39:25;11.32;;;6.03;;
34767;SDS011;21755;43.608;1.236;2023-06-26T04:41:51;14.68;;;6.78;;
34767;SDS011;21755;43.608;1.236;2023-06-26T04:44:17;10.32;;;6.82;;
34767;SDS011;21755;43.608;1.236;2023-06-26T04:46:43;12.43;;;7.38;;
34767;SDS011;21755;43.608;1.236;2023-06-26T04:49:09;10.88;;;5.40;;
34767;SDS011;21755;43.608;1.236;2023-06-26T04:51:36;10.10;;;6.07;;
34767;SDS011;21755;43.608;1.236;2023-06-26T04:56:35;11.35;;;6.22;;
34767;SDS011;21755;43.608;1.236;2023-06-26T04:59:01;13.10;;;6.82;;
34767;SDS011;21755;43.608;1.236;2023-06-26T05:01:28;13.55;;;6.50;;
34767;SDS011;21755;43.608;1.236;2023-06-26T05:03:55;11.95;;;7.57;;
34767;SDS011;21755;43.608;1.236;2023-06-26T05:06:22;15.00;;;7.63;;
34767;SDS011;21755;43.608;1.236;2023-06-26T05:08:48;12.15;;;6.50;;
34767;SDS011;21755;43.608;1.236;2023-06-26T05:11:14;12.05;;;6.50;;
34767;SDS011;21755;43.608;1.236;2023-06-26T05:13:40;11.32;;;6.38;;
34767;SDS011;21755;43.608;1.236;2023-06-26T05:16:06;12.52;;;6.53;;
34767;SDS011;21755;43.608;1.236;2023-06-26T05:18:34;12.48;;;7.25;;
34767;SDS011;21755;43.608;1.236;2023-06-26T05:21:01;15.85;;;6.47;;
34767;SDS011;21755;43.608;1.236;2023-06-26T05:23:30;11.63;;;7.25;;
34767;SDS011;21755;43.608;1.236;2023-06-26T05:25:57;16.83;;;7.68;;
34767;SDS011;21755;43.608;1.236;2023-06-26T05:28:24;15.32;;;7.68;;
34767;SDS011;21755;43.608;1.236;2023-06-26T05:30:52;11.68;;;7.47;;
34767;SDS011;21755;43.608;1.236;2023-06-26T05:33:19;11.88;;;7.03;;
34767;SDS011;21755;43.608;1.236;2023-06-26T05:35:48;12.65;;;6.45;;
34767;SDS011;21755;43.608;1.236;2023-06-26T05:38:16;13.60;;;7.55;;
34767;SDS011;21755;43.608;1.236;2023-06-26T05:40:43;13.10;;;7.00;;
34767;SDS011;21755;43.608;1.236;2023-06-26T05:43:09;16.10;;;6.75;;
34767;SDS011;21755;43.608;1.236;2023-06-26T05:45:35;12.55;;;6.95;;
34767;SDS011;21755;43.608;1.236;2023-06-26T05:48:01;8.77;;;6.55;;
34767;SDS011;21755;43.608;1.236;2023-06-26T05:50:27;19.85;;;5.78;;
34767;SDS011;21755;43.608;1.236;2023-06-26T05:52:54;12.20;;;6.60;;
34767;SDS011;21755;43.608;1.236;2023-06-26T05:55:20;13.20;;;6.20;;
34767;SDS011;21755;43.608;1.236;2023-06-26T05:57:47;8.88;;;5.47;;
34767;SDS011;21755;43.608;1.236;2023-06-26T06:00:15;11.60;;;5.45;;
34767;SDS011;21755;43.608;1.236;2023-06-26T06:02:41;9.90;;;5.90;;
34767;SDS011;21755;43.608;1.236;2023-06-26T06:05:08;11.00;;;5.60;;
34767;SDS011;21755;43.608;1.236;2023-06-26T06:07:35;9.30;;;6.07;;
34767;SDS011;21755;43.608;1.236;2023-06-26T06:10:02;16.50;;;6.22;;
34767;SDS011;21755;43.608;1.236;2023-06-26T06:12:28;13.63;;;5.68;;
34767;SDS011;21755;43.608;1.236;2023-06-26T06:14:55;10.90;;;5.22;;
34767;SDS011;21755;43.608;1.236;2023-06-26T06:17:21;12.65;;;4.57;;
34767;SDS011;21755;43.608;1.236;2023-06-26T06:19:47;11.50;;;4.97;;
34767;SDS011;21755;43.608;1.236;2023-06-26T06:22:14;14.43;;;4.75;;
34767;SDS011;21755;43.608;1.236;2023-06-26T06:24:41;12.18;;;4.50;;
34767;SDS011;21755;43.608;1.236;2023-06-26T06:27:07;14.63;;;4.75;;
34767;SDS011;21755;43.608;1.236;2023-06-26T06:29:33;13.20;;;5.50;;
34767;SDS011;21755;43.608;1.236;2023-06-26T06:31:59;14.43;;;4.78;;
34767;SDS011;21755;43.608;1.236;2023-06-26T06:34:25;8.20;;;4.20;;
34767;SDS011;21755;43.608;1.236;2023-06-26T06:36:51;14.75;;;5.03;;
34767;SDS011;21755;43.608;1.236;2023-06-26T06:39:17;13.60;;;5.07;;
34767;SDS011;21755;43.608;1.236;2023-06-26T06:41:42;14.02;;;5.13;;
34767;SDS011;21755;43.608;1.236;2023-06-26T06:44:08;17.35;;;4.60;;
34767;SDS011;21755;43.608;1.236;2023-06-26T06:46:34;13.20;;;5.22;;
34767;SDS011;21755;43.608;1.236;2023-06-26T06:49:00;12.98;;;4.50;;
34767;SDS011;21755;43.608;1.236;2023-06-26T06:51:26;12.13;;;4.20;;
34767;SDS011;21755;43.608;1.236;2023-06-26T06:53:52;10.65;;;4.57;;
34767;SDS011;21755;43.608;1.236;2023-06-26T06:56:18;10.93;;;4.60;;
34767;SDS011;21755;43.608;1.236;2023-06-26T06:58:44;10.45;;;4.40;;
34767;SDS011;21755;43.608;1.236;2023-06-26T07:01:12;16.20;;;4.85;;
34767;SDS011;21755;43.608;1.236;2023-06-26T07:03:38;10.15;;;4.30;;
34767;SDS011;21755;43.608;1.236;2023-06-26T07:06:05;8.18;;;3.67;;
34767;SDS011;21755;43.608;1.236;2023-06-26T07:08:31;8.82;;;4.80;;
34767;SDS011;21755;43.608;1.236;2023-06-26T07:10:57;11.82;;;4.72;;
34767;SDS011;21755;43.608;1.236;2023-06-26T07:13:23;8.77;;;4.07;;
34767;SDS011;21755;43.608;1.236;2023-06-26T07:15:49;17.63;;;4.57;;
34767;SDS011;21755;43.608;1.236;2023-06-26T07:18:15;11.20;;;3.95;;
34767;SDS011;21755;43.608;1.236;2023-06-26T07:23:22;6.75;;;4.03;;
34767;SDS011;21755;43.608;1.236;2023-06-26T07:25:50;9.32;;;4.97;;
34767;SDS011;21755;43.608;1.236;2023-06-26T07:28:16;10.82;;;4.90;;
34767;SDS011;21755;43.608;1.236;2023-06-26T07:30:42;13.07;;;4.35;;
34767;SDS011;21755;43.608;1.236;2023-06-26T07:33:08;8.55;;;4.78;;
34767;SDS011;21755;43.608;1.236;2023-06-26T07:35:39;14.18;;;5.10;;
34767;SDS011;21755;43.608;1.236;2023-06-26T07:38:06;13.25;;;4.43;;
34767;SDS011;21755;43.608;1.236;2023-06-26T07:40:32;11.65;;;4.45;;
34767;SDS011;21755;43.608;1.236;2023-06-26T07:42:58;12.40;;;4.93;;
34767;SDS011;21755;43.608;1.236;2023-06-26T07:45:24;11.25;;;5.30;;
34767;SDS011;21755;43.608;1.236;2023-06-26T07:47:50;15.65;;;5.55;;
34767;SDS011;21755;43.608;1.236;2023-06-26T07:50:16;12.10;;;4.60;;
34767;SDS011;21755;43.608;1.236;2023-06-26T07:52:46;18.40;;;5.43;;
34767;SDS011;21755;43.608;1.236;2023-06-26T07:55:12;7.85;;;4.18;;
34767;SDS011;21755;43.608;1.236;2023-06-26T07:57:38;10.98;;;5.03;;
34767;SDS011;21755;43.608;1.236;2023-06-26T08:00:05;9.32;;;4.65;;
34767;SDS011;21755;43.608;1.236;2023-06-26T08:02:32;12.20;;;5.32;;
34767;SDS011;21755;43.608;1.236;2023-06-26T08:04:57;11.70;;;5.32;;
34767;SDS011;21755;43.608;1.236;2023-06-26T08:07:23;12.48;;;5.22;;
34767;SDS011;21755;43.608;1.236;2023-06-26T08:09:49;14.85;;;5.40;;
34767;SDS011;21755;43.608;1.236;2023-06-26T08:12:15;12.93;;;5.30;;
34767;SDS011;21755;43.608;1.236;2023-06-26T08:14:41;15.77;;;5.07;;
34767;SDS011;21755;43.608;1.236;2023-06-26T08:17:07;12.23;;;5.25;;
34767;SDS011;21755;43.608;1.236;2023-06-26T08:19:33;9.73;;;4.88;;
34767;SDS011;21755;43.608;1.236;2023-06-26T08:21:59;11.38;;;4.72;;
34767;SDS011;21755;43.608;1.236;2023-06-26T08:24:25;19.77;;;5.60;;
34767;SDS011;21755;43.608;1.236;2023-06-26T08:26:51;10.23;;;5.10;;
34767;SDS011;21755;43.608;1.236;2023-06-26T08:29:16;13.50;;;5.50;;
34767;SDS011;21755;43.608;1.236;2023-06-26T08:31:42;12.23;;;5.50;;
34767;SDS011;21755;43.608;1.236;2023-06-26T08:34:09;11.15;;;5.72;;
34767;SDS011;21755;43.608;1.236;2023-06-26T08:36:35;10.60;;;5.00;;
34767;SDS011;21755;43.608;1.236;2023-06-26T08:39:01;13.30;;;5.72;;
34767;SDS011;21755;43.608;1.236;2023-06-26T08:41:27;14.05;;;5.32;;
34767;SDS011;21755;43.608;1.236;2023-06-26T08:43:53;10.38;;;5.15;;
34767;SDS011;21755;43.608;1.236;2023-06-26T08:46:20;9.07;;;4.82;;
34767;SDS011;21755;43.608;1.236;2023-06-26T08:48:49;9.98;;;4.95;;
34767;SDS011;21755;43.608;1.236;2023-06-26T08:51:21;14.35;;;5.95;;
34767;SDS011;21755;43.608;1.236;2023-06-26T08:53:57;13.93;;;5.30;;
34767;SDS011;21755;43.608;1.236;2023-06-26T08:56:27;14.45;;;5.35;;
34767;SDS011;21755;43.608;1.236;2023-06-26T09:01:24;7.47;;;4.82;;
34767;SDS011;21755;43.608;1.236;2023-06-26T09:03:50;11.70;;;5.50;;
34767;SDS011;21755;43.608;1.236;2023-06-26T09:06:17;12.45;;;4.93;;
34767;SDS011;21755;43.608;1.236;2023-06-26T09:08:43;8.68;;;4.95;;
34767;SDS011;21755;43.608;1.236;2023-06-26T09:11:09;10.23;;;5.57;;
34767;SDS011;21755;43.608;1.236;2023-06-26T09:13:35;8.07;;;5.28;;
34767;SDS011;21755;43.608;1.236;2023-06-26T09:16:08;8.27;;;4.82;;
34767;SDS011;21755;43.608;1.236;2023-06-26T09:18:34;10.50;;;5.88;;
34767;SDS011;21755;43.608;1.236;2023-06-26T09:21:05;12.57;;;4.95;;
34767;SDS011;21755;43.608;1.236;2023-06-26T09:23:33;14.57;;;5.78;;
34767;SDS011;21755;43.608;1.236;2023-06-26T09:26:02;16.92;;;6.18;;
34767;SDS011;21755;43.608;1.236;2023-06-26T09:28:29;12.50;;;5.55;;
34767;SDS011;21755;43.608;1.236;2023-06-26T09:31:00;11.80;;;5.97;;
34767;SDS011;21755;43.608;1.236;2023-06-26T09:33:28;17.15;;;5.53;;
34767;SDS011;21755;43.608;1.236;2023-06-26T09:36:01;9.95;;;5.28;;
34767;SDS011;21755;43.608;1.236;2023-06-26T09:38:27;11.02;;;4.80;;
34767;SDS011;21755;43.608;1.236;2023-06-26T09:40:53;11.43;;;5.53;;
34767;SDS011;21755;43.608;1.236;2023-06-26T09:43:19;9.23;;;4.95;;
34767;SDS011;21755;43.608;1.236;2023-06-26T09:45:45;9.80;;;4.75;;
34767;SDS011;21755;43.608;1.236;2023-06-26T09:48:11;10.00;;;4.97;;
34767;SDS011;21755;43.608;1.236;2023-06-26T09:50:41;9.63;;;5.53;;
34767;SDS011;21755;43.608;1.236;2023-06-26T09:53:12;13.10;;;5.05;;
34767;SDS011;21755;43.608;1.236;2023-06-26T09:55:39;11.90;;;5.10;;
34767;SDS011;21755;43.608;1.236;2023-06-26T09:58:09;7.85;;;4.85;;
34767;SDS011;21755;43.608;1.236;2023-06-26T10:00:40;8.85;;;4.65;;
34767;SDS011;21755;43.608;1.236;2023-06-26T10:03:07;11.50;;;5.00;;
34767;SDS011;21755;43.608;1.236;2023-06-26T10:05:34;9.70;;;5.28;;
34767;SDS011;21755;43.608;1.236;2023-06-26T10:08:00;11.95;;;5.32;;
34767;SDS011;21755;43.608;1.236;2023-06-26T10:10:27;18.02;;;5.18;;
34767;SDS011;21755;43.608;1.236;2023-06-26T10:12:55;8.38;;;5.03;;
34767;SDS011;21755;43.608;1.236;2023-06-26T10:15:26;14.52;;;5.75;;
34767;SDS011;21755;43.608;1.236;2023-06-26T10:17:55;16.00;;;6.05;;
34767;SDS011;21755;43.608;1.236;2023-06-26T10:20:22;17.33;;;6.15;;
34767;SDS011;21755;43.608;1.236;2023-06-26T10:22:51;13.00;;;5.78;;
34767;SDS011;21755;43.608;1.236;2023-06-26T10:25:19;12.82;;;5.90;;
34767;SDS011;21755;43.608;1.236;2023-06-26T10:27:51;14.40;;;5.57;;
34767;SDS011;21755;43.608;1.236;2023-06-26T10:30:22;12.18;;;5.45;;
34767;SDS011;21755;43.608;1.236;2023-06-26T10:32:52;12.50;;;5.65;;
34767;SDS011;21755;43.608;1.236;2023-06-26T10:35:19;15.60;;;5.28;;
34767;SDS011;21755;43.608;1.236;2023-06-26T10:37:48;11.18;;;5.18;;
34767;SDS011;21755;43.608;1.236;2023-06-26T10:40:22;17.65;;;5.93;;
34767;SDS011;21755;43.608;1.236;2023-06-26T10:42:51;10.88;;;5.38;;
34767;SDS011;21755;43.608;1.236;2023-06-26T10:45:30;13.93;;;5.15;;
34767;SDS011;21755;43.608;1.236;2023-06-26T10:47:58;16.52;;;5.68;;
34767;SDS011;21755;43.608;1.236;2023-06-26T10:50:25;11.88;;;7.13;;
34767;SDS011;21755;43.608;1.236;2023-06-26T10:53:10;10.75;;;6.30;;
34767;SDS011;21755;43.608;1.236;2023-06-26T10:55:57;10.80;;;5.57;;
34767;SDS011;21755;43.608;1.236;2023-06-26T10:58:29;12.80;;;5.97;;
34767;SDS011;21755;43.608;1.236;2023-06-26T11:06:28;16.13;;;5.70;;
34767;SDS011;21755;43.608;1.236;2023-06-26T11:14:19;10.88;;;5.43;;
34767;SDS011;21755;43.608;1.236;2023-06-26T11:16:52;11.63;;;5.53;;
34767;SDS011;21755;43.608;1.236;2023-06-26T11:19:25;15.40;;;5.75;;
34767;SDS011;21755;43.608;1.236;2023-06-26T11:21:57;13.50;;;6.50;;
34767;SDS011;21755;43.608;1.236;2023-06-26T11:24:25;11.95;;;6.00;;
34767;SDS011;21755;43.608;1.236;2023-06-26T11:26:52;11.73;;;6.05;;
34767;SDS011;21755;43.608;1.236;2023-06-26T11:29:18;9.65;;;5.53;;
34767;SDS011;21755;43.608;1.236;2023-06-26T11:31:44;13.18;;;5.97;;
34767;SDS011;21755;43.608;1.236;2023-06-26T11:34:11;16.92;;;6.72;;
34767;SDS011;21755;43.608;1.236;2023-06-26T11:36:39;12.43;;;6.20;;
34767;SDS011;21755;43.608;1.236;2023-06-26T11:39:07;16.45;;;6.05;;
34767;SDS011;21755;43.608;1.236;2023-06-26T11:41:34;15.18;;;6.03;;
34767;SDS011;21755;43.608;1.236;2023-06-26T11:44:01;13.15;;;6.18;;
34767;SDS011;21755;43.608;1.236;2023-06-26T11:46:27;14.65;;;6.00;;
34767;SDS011;21755;43.608;1.236;2023-06-26T11:48:53;13.38;;;5.47;;
34767;SDS011;21755;43.608;1.236;2023-06-26T11:51:20;10.88;;;5.50;;
34767;SDS011;21755;43.608;1.236;2023-06-26T11:53:46;11.70;;;5.90;;
34767;SDS011;21755;43.608;1.236;2023-06-26T11:56:14;10.07;;;6.13;;
34767;SDS011;21755;43.608;1.236;2023-06-26T12:01:23;14.23;;;5.75;;
34767;SDS011;21755;43.608;1.236;2023-06-26T12:03:50;13.48;;;5.65;;
34767;SDS011;21755;43.608;1.236;2023-06-26T12:06:16;11.88;;;4.25;;
34767;SDS011;21755;43.608;1.236;2023-06-26T12:08:42;7.63;;;4.75;;
34767;SDS011;21755;43.608;1.236;2023-06-26T12:11:09;11.65;;;4.80;;
34767;SDS011;21755;43.608;1.236;2023-06-26T12:13:35;7.93;;;4.20;;
34767;SDS011;21755;43.608;1.236;2023-06-26T12:16:01;5.93;;;4.13;;
34767;SDS011;21755;43.608;1.236;2023-06-26T12:18:33;6.75;;;4.65;;
34767;SDS011;21755;43.608;1.236;2023-06-26T12:21:02;10.23;;;4.03;;
34767;SDS011;21755;43.608;1.236;2023-06-26T12:23:38;11.10;;;4.45;;
34767;SDS011;21755;43.608;1.236;2023-06-26T12:26:20;8.95;;;4.60;;
34767;SDS011;21755;43.608;1.236;2023-06-26T12:28:47;12.02;;;5.05;;
34767;SDS011;21755;43.608;1.236;2023-06-26T12:31:16;8.18;;;4.35;;
34767;SDS011;21755;43.608;1.236;2023-06-26T12:33:43;11.35;;;4.68;;
34767;SDS011;21755;43.608;1.236;2023-06-26T12:36:12;7.90;;;5.05;;
34767;SDS011;21755;43.608;1.236;2023-06-26T12:38:39;9.45;;;5.05;;
34767;SDS011;21755;43.608;1.236;2023-06-26T12:41:13;8.18;;;4.55;;
34767;SDS011;21755;43.608;1.236;2023-06-26T12:43:42;6.60;;;4.47;;
34767;SDS011;21755;43.608;1.236;2023-06-26T12:46:08;14.98;;;4.45;;
34767;SDS011;21755;43.608;1.236;2023-06-26T12:48:38;12.40;;;4.00;;
34767;SDS011;21755;43.608;1.236;2023-06-26T12:51:11;8.40;;;4.35;;
34767;SDS011;21755;43.608;1.236;2023-06-26T12:53:41;13.93;;;4.63;;
34767;SDS011;21755;43.608;1.236;2023-06-26T12:56:08;9.60;;;4.32;;
34767;SDS011;21755;43.608;1.236;2023-06-26T12:58:35;8.13;;;5.30;;
34767;SDS011;21755;43.608;1.236;2023-06-26T13:01:05;8.43;;;4.38;;
34767;SDS011;21755;43.608;1.236;2023-06-26T13:03:42;7.75;;;4.88;;
34767;SDS011;21755;43.608;1.236;2023-06-26T13:06:08;7.93;;;4.38;;
34767;SDS011;21755;43.608;1.236;2023-06-26T13:08:34;6.82;;;4.13;;
34767;SDS011;21755;43.608;1.236;2023-06-26T13:11:00;11.00;;;4.07;;
34767;SDS011;21755;43.608;1.236;2023-06-26T13:13:27;11.05;;;4.82;;
34767;SDS011;21755;43.608;1.236;2023-06-26T13:15:53;6.90;;;4.80;;
34767;SDS011;21755;43.608;1.236;2023-06-26T13:18:19;8.15;;;4.78;;
34767;SDS011;21755;43.608;1.236;2023-06-26T13:20:45;7.72;;;4.82;;
34767;SDS011;21755;43.608;1.236;2023-06-26T13:23:11;7.40;;;4.45;;
34767;SDS011;21755;43.608;1.236;2023-06-26T13:25:37;10.75;;;4.95;;
34767;SDS011;21755;43.608;1.236;2023-06-26T13:28:03;8.20;;;4.55;;
34767;SDS011;21755;43.608;1.236;2023-06-26T13:30:29;8.65;;;4.57;;
34767;SDS011;21755;43.608;1.236;2023-06-26T13:32:56;7.75;;;3.90;;
34767;SDS011;21755;43.608;1.236;2023-06-26T13:35:22;8.95;;;4.38;;
34767;SDS011;21755;43.608;1.236;2023-06-26T13:37:48;8.35;;;4.57;;
34767;SDS011;21755;43.608;1.236;2023-06-26T13:40:14;9.35;;;4.75;;
34767;SDS011;21755;43.608;1.236;2023-06-26T13:42:40;5.63;;;4.25;;
34767;SDS011;21755;43.608;1.236;2023-06-26T13:45:06;9.80;;;4.95;;
34767;SDS011;21755;43.608;1.236;2023-06-26T13:47:33;9.10;;;4.18;;
34767;SDS011;21755;43.608;1.236;2023-06-26T13:49:59;8.68;;;4.30;;
34767;SDS011;21755;43.608;1.236;2023-06-26T13:52:25;8.65;;;4.47;;
34767;SDS011;21755;43.608;1.236;2023-06-26T13:54:51;10.30;;;4.25;;
34767;SDS011;21755;43.608;1.236;2023-06-26T13:57:17;11.07;;;4.22;;
34767;SDS011;21755;43.608;1.236;2023-06-26T13:59:47;5.50;;;4.15;;
34767;SDS011;21755;43.608;1.236;2023-06-26T14:02:13;5.63;;;3.78;;
34767;SDS011;21755;43.608;1.236;2023-06-26T14:04:44;9.38;;;4.03;;
34767;SDS011;21755;43.608;1.236;2023-06-26T14:07:10;6.90;;;4.28;;
34767;SDS011;21755;43.608;1.236;2023-06-26T14:09:36;7.93;;;4.57;;
34767;SDS011;21755;43.608;1.236;2023-06-26T14:12:02;8.80;;;4.47;;
34767;SDS011;21755;43.608;1.236;2023-06-26T14:14:28;6.70;;;4.00;;
34767;SDS011;21755;43.608;1.236;2023-06-26T14:16:54;7.70;;;4.13;;
34767;SDS011;21755;43.608;1.236;2023-06-26T14:19:20;6.13;;;3.95;;
34767;SDS011;21755;43.608;1.236;2023-06-26T14:21:46;8.10;;;3.90;;
34767;SDS011;21755;43.608;1.236;2023-06-26T14:24:12;8.07;;;4.10;;
34767;SDS011;21755;43.608;1.236;2023-06-26T14:26:38;6.18;;;3.47;;
34767;SDS011;21755;43.608;1.236;2023-06-26T14:29:04;5.97;;;3.80;;
34767;SDS011;21755;43.608;1.236;2023-06-26T14:31:30;6.55;;;4.28;;
34767;SDS011;21755;43.608;1.236;2023-06-26T14:33:56;5.07;;;3.78;;
34767;SDS011;21755;43.608;1.236;2023-06-26T14:36:24;9.18;;;4.03;;
34767;SDS011;21755;43.608;1.236;2023-06-26T14:38:51;7.70;;;3.90;;
34767;SDS011;21755;43.608;1.236;2023-06-26T14:41:17;7.22;;;3.72;;
34767;SDS011;21755;43.608;1.236;2023-06-26T14:43:43;5.95;;;3.78;;
34767;SDS011;21755;43.608;1.236;2023-06-26T14:46:10;7.85;;;3.78;;
34767;SDS011;21755;43.608;1.236;2023-06-26T14:48:36;9.50;;;3.83;;
34767;SDS011;21755;43.608;1.236;2023-06-26T14:51:02;6.38;;;4.15;;
34767;SDS011;21755;43.608;1.236;2023-06-26T14:53:28;9.18;;;4.13;;
34767;SDS011;21755;43.608;1.236;2023-06-26T14:55:54;8.57;;;4.35;;
34767;SDS011;21755;43.608;1.236;2023-06-26T14:58:21;5.95;;;3.95;;
34767;SDS011;21755;43.608;1.236;2023-06-26T15:00:47;8.23;;;4.40;;
34767;SDS011;21755;43.608;1.236;2023-06-26T15:03:13;8.57;;;3.75;;
34767;SDS011;21755;43.608;1.236;2023-06-26T15:05:39;7.82;;;4.25;;